createdAt,value
2023-01-17T00:06:07.962Z,3.9
2023-01-17T00:13:40.288Z,3.9
2023-01-17T00:21:12.615Z,3.9
2023-01-17T00:28:44.922Z,3.9
2023-01-17T00:36:17.243Z,3.9
2023-01-17T00:43:49.555Z,3.9
2023-01-17T00:51:21.879Z,3.9
2023-01-17T00:58:54.203Z,3.9
2023-01-17T01:06:26.576Z,3.9
2023-01-17T01:13:58.884Z,3.9
2023-01-17T01:21:31.253Z,3.9
2023-01-17T01:29:03.948Z,3.9
2023-01-17T01:36:36.259Z,3.9
2023-01-17T01:44:08.575Z,3.9
2023-01-17T01:51:40.898Z,3.9
2023-01-17T01:59:13.222Z,3.9
2023-01-17T02:06:45.535Z,3.9
2023-01-17T02:14:17.828Z,3.9
2023-01-17T02:21:50.155Z,3.9
2023-01-17T02:29:22.469Z,3.9
2023-01-17T02:36:55.275Z,3.9
2023-01-17T02:44:27.632Z,3.9
2023-01-17T02:51:59.941Z,3.9
2023-01-17T02:59:32.263Z,3.9
2023-01-17T03:07:04.568Z,3.9
2023-01-17T03:14:36.889Z,3.9
2023-01-17T03:22:09.197Z,3.9
2023-01-17T03:29:41.519Z,3.9
2023-01-17T03:37:13.825Z,3.9
2023-01-17T03:44:46.124Z,3.9
2023-01-17T03:52:18.425Z,3.9
2023-01-17T03:59:50.758Z,3.9
2023-01-17T04:07:23.372Z,3.9
2023-01-17T04:14:55.683Z,3.9
2023-01-17T04:22:27.985Z,3.9
2023-01-17T04:30:00.293Z,3.9
2023-01-17T04:37:32.605Z,3.9
2023-01-17T04:45:04.930Z,3.9
2023-01-17T04:52:37.245Z,3.9
2023-01-17T05:00:09.575Z,3.9
2023-01-17T05:07:41.876Z,3.9
2023-01-17T05:10:24.318Z,54.7
2023-01-17T05:11:11.628Z,53.6
2023-01-17T05:11:58.946Z,53.5
2023-01-17T05:12:47.471Z,53.1
2023-01-17T05:13:35.090Z,52.9
2023-01-17T05:14:22.632Z,53.2
2023-01-17T05:15:09.978Z,53.3
2023-01-17T05:15:57.344Z,53.0
2023-01-17T05:16:44.695Z,53.4
2023-01-17T05:17:32.035Z,52.9
2023-01-17T05:18:19.516Z,53.3
2023-01-17T05:19:06.869Z,53.3
2023-01-17T05:19:54.204Z,53.4
2023-01-17T05:20:41.527Z,52.7
2023-01-17T05:21:28.865Z,53.1
2023-01-17T05:22:16.172Z,53.2
2023-01-17T05:23:03.488Z,51.3
2023-01-17T05:23:50.809Z,53.4
2023-01-17T05:24:38.144Z,53.6
2023-01-17T05:25:25.425Z,53.2
2023-01-17T05:26:12.947Z,53.4
2023-01-17T05:27:00.375Z,53.2
2023-01-17T05:27:47.689Z,53.2
2023-01-17T05:28:34.977Z,53.4
2023-01-17T05:29:22.291Z,53.5
2023-01-17T05:30:09.609Z,53.4
2023-01-17T05:30:56.967Z,53.6
2023-01-17T05:31:44.307Z,53.5
2023-01-17T05:32:31.637Z,53.2
2023-01-17T05:33:18.968Z,53.1
2023-01-17T05:34:06.276Z,53.2
2023-01-17T05:34:53.602Z,53.6
2023-01-17T05:35:40.922Z,53.1
2023-01-17T05:36:28.225Z,53.3
2023-01-17T05:37:15.550Z,53.4
2023-01-17T05:38:02.859Z,53.2
2023-01-17T05:38:50.192Z,53.2
2023-01-17T05:39:37.538Z,52.9
2023-01-17T05:40:24.853Z,53.4
2023-01-17T05:41:12.180Z,53.0
2023-01-17T05:41:59.524Z,54.9
2023-01-17T05:42:46.886Z,55.2
2023-01-17T05:43:34.216Z,55.1
2023-01-17T05:44:21.526Z,54.8
2023-01-17T05:45:08.835Z,55.0
2023-01-17T05:45:56.188Z,55.3
2023-01-17T05:46:43.529Z,55.2
2023-01-17T05:47:30.846Z,55.1
2023-01-17T05:48:18.180Z,55.1
2023-01-17T05:49:05.521Z,55.3
2023-01-17T05:49:52.834Z,55.6
2023-01-17T05:50:40.167Z,55.6
2023-01-17T05:51:27.532Z,55.4
2023-01-17T05:52:14.852Z,55.4
2023-01-17T05:53:02.169Z,55.5
2023-01-17T05:53:49.492Z,55.3
2023-01-17T05:54:36.809Z,55.4
2023-01-17T05:55:24.117Z,55.5
2023-01-17T05:56:11.435Z,55.4
2023-01-17T05:56:58.777Z,54.7
2023-01-17T05:57:46.072Z,55.5
2023-01-17T05:58:33.395Z,55.8
2023-01-17T05:59:32.370Z,55.4
2023-01-17T06:00:18.012Z,55.6
2023-01-17T06:01:05.424Z,55.7
2023-01-17T06:01:52.743Z,55.5
2023-01-17T06:02:40.189Z,55.5
2023-01-17T06:03:27.610Z,55.7
2023-01-17T06:04:14.940Z,55.7
2023-01-17T06:05:03.512Z,55.7
2023-01-17T06:05:50.936Z,56.0
2023-01-17T06:06:38.281Z,55.6
2023-01-17T06:07:25.616Z,55.9
2023-01-17T06:08:12.954Z,55.7
2023-01-17T06:09:00.353Z,55.9
2023-01-17T06:09:47.679Z,55.8
2023-01-17T06:10:35.007Z,55.9
2023-01-17T06:11:22.432Z,55.8
2023-01-17T06:12:09.747Z,55.4
2023-01-17T06:12:57.137Z,55.8
2023-01-17T06:13:44.500Z,56.0
2023-01-17T06:14:31.862Z,56.0
2023-01-17T06:15:19.182Z,55.8
2023-01-17T06:16:06.656Z,55.3
2023-01-17T06:16:54.012Z,55.6
2023-01-17T06:17:41.312Z,56.0
2023-01-17T06:18:28.741Z,56.1
2023-01-17T06:19:16.066Z,55.8
2023-01-17T06:20:03.423Z,56.3
2023-01-17T06:20:50.820Z,56.2
2023-01-17T06:21:38.386Z,56.1
2023-01-17T06:22:25.697Z,56.1
2023-01-17T06:23:13.135Z,56.2
2023-01-17T06:24:01.553Z,56.1
2023-01-17T06:24:49.992Z,55.8
2023-01-17T06:25:37.457Z,56.5
2023-01-17T06:26:24.813Z,56.2
2023-01-17T06:27:12.136Z,56.5
2023-01-17T06:27:59.564Z,56.0
2023-01-17T06:28:46.875Z,56.1
2023-01-17T06:29:34.239Z,54.1
2023-01-17T06:30:21.621Z,54.2
2023-01-17T06:31:09.037Z,53.5
2023-01-17T06:31:56.560Z,53.9
2023-01-17T06:32:43.933Z,54.0
2023-01-17T06:33:31.348Z,53.8
2023-01-17T06:34:18.680Z,53.8
2023-01-17T06:35:06.073Z,56.2
2023-01-17T06:35:53.399Z,56.5
2023-01-17T06:36:40.718Z,56.1
2023-01-17T06:37:28.160Z,56.4
2023-01-17T06:39:14.041Z,56.3
2023-01-17T06:40:02.177Z,59.4
2023-01-17T06:40:49.615Z,59.9
2023-01-17T06:41:36.915Z,57.3
2023-01-17T06:42:24.260Z,57.2
2023-01-17T06:43:11.728Z,57.4
2023-01-17T06:43:59.026Z,57.3
2023-01-17T06:44:46.351Z,57.6
2023-01-17T06:45:33.781Z,57.4
2023-01-17T06:46:21.147Z,57.3
2023-01-17T06:47:08.505Z,57.3
2023-01-17T06:47:55.904Z,57.2
2023-01-17T06:48:43.222Z,57.5
2023-01-17T06:49:30.566Z,57.1
2023-01-17T06:50:17.992Z,57.4
2023-01-17T06:51:05.318Z,57.1
2023-01-17T06:51:52.639Z,56.7
2023-01-17T06:52:40.093Z,56.6
2023-01-17T06:53:27.411Z,57.0
2023-01-17T06:54:14.722Z,57.3
2023-01-17T06:55:02.204Z,57.3
2023-01-17T06:55:49.533Z,57.2
2023-01-17T06:56:36.869Z,57.5
2023-01-17T06:57:24.284Z,57.3
2023-01-17T06:58:11.582Z,57.6
2023-01-17T06:58:58.914Z,57.2
2023-01-17T06:59:46.354Z,57.1
2023-01-17T07:00:34.139Z,57.6
2023-01-17T07:01:22.054Z,56.9
2023-01-17T07:02:09.474Z,57.7
2023-01-17T07:02:56.888Z,57.6
2023-01-17T07:03:44.393Z,57.6
2023-01-17T07:04:31.741Z,57.6
2023-01-17T07:05:19.144Z,57.6
2023-01-17T07:06:06.480Z,57.8
2023-01-17T07:06:53.814Z,57.2
2023-01-17T07:07:41.188Z,57.5
2023-01-17T07:08:28.518Z,57.4
2023-01-17T07:09:15.841Z,57.4
2023-01-17T07:10:03.244Z,57.7
2023-01-17T07:10:50.545Z,57.2
2023-01-17T07:11:37.875Z,57.3
2023-01-17T07:12:25.325Z,57.2
2023-01-17T07:13:12.642Z,57.7
2023-01-17T07:13:59.968Z,56.8
2023-01-17T07:14:47.382Z,57.2
2023-01-17T07:15:34.720Z,57.6
2023-01-17T07:16:22.105Z,57.5
2023-01-17T07:17:09.492Z,57.3
2023-01-17T07:17:56.808Z,57.4
2023-01-17T07:18:44.151Z,57.3
2023-01-17T07:19:31.581Z,57.5
2023-01-17T07:20:18.890Z,57.7
2023-01-17T07:21:06.221Z,57.9
2023-01-17T07:21:53.645Z,57.5
2023-01-17T07:22:40.948Z,57.8
2023-01-17T07:23:28.319Z,57.8
2023-01-17T07:24:15.723Z,58.0
2023-01-17T07:25:03.082Z,57.9
2023-01-17T07:25:50.406Z,58.1
2023-01-17T07:26:37.997Z,57.7
2023-01-17T07:27:25.340Z,57.7
2023-01-17T07:28:12.700Z,58.1
2023-01-17T07:29:00.112Z,57.7
2023-01-17T07:29:47.475Z,58.0
2023-01-17T07:30:34.793Z,57.8
2023-01-17T07:31:22.276Z,58.1
2023-01-17T07:32:09.666Z,58.1
2023-01-17T07:32:56.993Z,58.2
2023-01-17T07:33:44.407Z,58.0
2023-01-17T07:34:31.760Z,58.0
2023-01-17T07:35:19.115Z,57.9
2023-01-17T07:36:06.503Z,58.1
2023-01-17T07:36:53.805Z,57.7
2023-01-17T07:37:41.123Z,58.1
2023-01-17T07:38:28.548Z,58.0
2023-01-17T07:39:15.853Z,58.2
2023-01-17T07:40:03.181Z,58.5
2023-01-17T07:40:50.600Z,58.4
2023-01-17T07:41:37.909Z,58.7
2023-01-17T07:42:25.234Z,58.5
2023-01-17T07:43:12.663Z,58.4
2023-01-17T07:43:59.992Z,58.8
2023-01-17T07:44:47.287Z,58.5
2023-01-17T07:45:34.753Z,58.8
2023-01-17T07:46:22.117Z,58.6
2023-01-17T07:47:09.439Z,58.8
2023-01-17T07:47:56.859Z,58.7
2023-01-17T07:48:44.197Z,58.8
2023-01-17T07:49:31.520Z,59.2
2023-01-17T07:50:18.925Z,58.9
2023-01-17T07:51:06.255Z,59.1
2023-01-17T07:51:53.694Z,58.8
2023-01-17T07:52:41.081Z,58.7
2023-01-17T07:53:28.498Z,58.9
2023-01-17T07:54:15.876Z,58.7
2023-01-17T07:55:03.266Z,58.6
2023-01-17T07:55:50.590Z,58.3
2023-01-17T07:56:37.947Z,58.7
2023-01-17T07:57:25.329Z,58.5
2023-01-17T07:58:12.677Z,58.3
2023-01-17T07:59:00.040Z,58.3
2023-01-17T07:59:47.446Z,58.0
2023-01-17T08:00:34.770Z,57.7
2023-01-17T08:01:22.211Z,57.2
2023-01-17T08:02:09.638Z,58.1
2023-01-17T08:02:56.971Z,57.8
2023-01-17T08:03:44.425Z,57.5
2023-01-17T08:04:31.812Z,57.5
2023-01-17T08:05:19.130Z,57.5
2023-01-17T08:06:06.459Z,58.0
2023-01-17T08:06:53.868Z,57.9
2023-01-17T08:07:41.191Z,58.0
2023-01-17T08:08:28.518Z,57.8
2023-01-17T08:09:15.909Z,57.8
2023-01-17T08:10:03.216Z,58.2
2023-01-17T08:10:50.540Z,58.0
2023-01-17T08:11:37.943Z,58.2
2023-01-17T08:12:25.280Z,58.6
2023-01-17T08:13:12.602Z,58.5
2023-01-17T08:14:00.082Z,58.1
2023-01-17T08:14:47.489Z,58.6
2023-01-17T08:15:34.828Z,58.6
2023-01-17T08:16:22.334Z,58.4
2023-01-17T08:17:09.641Z,58.8
2023-01-17T08:17:56.936Z,58.5
2023-01-17T08:18:44.385Z,58.6
2023-01-17T08:19:31.707Z,58.3
2023-01-17T08:20:19.045Z,58.3
2023-01-17T08:21:06.434Z,58.5
2023-01-17T08:21:53.762Z,58.3
2023-01-17T08:22:41.073Z,58.9
2023-01-17T08:23:28.502Z,58.3
2023-01-17T08:24:15.844Z,58.6
2023-01-17T08:25:03.170Z,58.7
2023-01-17T08:25:50.815Z,58.7
2023-01-17T08:26:38.131Z,58.4
2023-01-17T08:27:25.533Z,58.3
2023-01-17T08:28:12.866Z,57.8
2023-01-17T08:29:00.190Z,58.6
2023-01-17T08:29:47.536Z,58.4
2023-01-17T08:30:34.951Z,58.3
2023-01-17T08:31:22.382Z,58.2
2023-01-17T08:32:09.756Z,58.3
2023-01-17T08:32:57.180Z,58.7
2023-01-17T08:33:44.665Z,59.2
2023-01-17T08:34:32.011Z,59.3
2023-01-17T08:35:19.415Z,59.1
2023-01-17T08:36:06.742Z,58.5
2023-01-17T08:36:54.063Z,59.7
2023-01-17T08:37:41.469Z,59.0
2023-01-17T08:38:28.758Z,59.1
2023-01-17T08:39:16.063Z,59.5
2023-01-17T08:40:03.519Z,59.4
2023-01-17T08:40:50.849Z,57.8
2023-01-17T08:41:38.173Z,57.9
2023-01-17T08:42:25.630Z,57.3
2023-01-17T08:43:12.936Z,57.6
2023-01-17T08:44:00.253Z,57.7
2023-01-17T08:44:47.679Z,58.6
2023-01-17T08:45:35.022Z,58.2
2023-01-17T08:46:22.353Z,58.3
2023-01-17T08:47:09.775Z,58.6
2023-01-17T08:47:57.124Z,58.4
2023-01-17T08:48:44.457Z,58.7
2023-01-17T08:49:31.889Z,58.4
2023-01-17T08:50:21.683Z,59.1
2023-01-17T08:51:09.023Z,59.1
2023-01-17T08:51:56.453Z,59.0
2023-01-17T08:52:43.806Z,59.2
2023-01-17T08:53:31.164Z,59.0
2023-01-17T08:54:18.589Z,59.2
2023-01-17T08:55:05.943Z,59.1
2023-01-17T08:55:53.270Z,58.6
2023-01-17T08:56:40.703Z,58.7
2023-01-17T08:57:28.347Z,59.1
2023-01-17T08:58:15.698Z,59.4
2023-01-17T08:59:03.157Z,59.7
2023-01-17T08:59:50.490Z,58.9
2023-01-17T09:00:37.812Z,59.5
2023-01-17T09:01:25.378Z,59.3
2023-01-17T09:02:12.781Z,59.5
2023-01-17T09:03:00.108Z,58.9
2023-01-17T09:03:47.508Z,59.3
2023-01-17T09:04:34.856Z,59.3
2023-01-17T09:05:22.192Z,59.4
2023-01-17T09:06:09.629Z,59.2
2023-01-17T09:06:56.942Z,59.4
2023-01-17T09:07:44.265Z,59.9
2023-01-17T09:08:34.754Z,59.2
2023-01-17T09:09:22.085Z,59.5
2023-01-17T09:10:09.473Z,59.0
2023-01-17T09:10:56.807Z,59.3
2023-01-17T09:11:44.136Z,59.6
2023-01-17T09:12:31.497Z,59.4
2023-01-17T09:13:18.816Z,59.7
2023-01-17T09:14:06.134Z,59.4
2023-01-17T09:14:53.595Z,59.3
2023-01-17T09:15:40.947Z,59.7
2023-01-17T09:16:28.293Z,59.8
2023-01-17T09:17:15.689Z,59.2
2023-01-17T09:18:03.014Z,59.6
2023-01-17T09:18:50.316Z,59.8
2023-01-17T09:19:37.732Z,59.9
2023-01-17T09:20:25.083Z,59.4
2023-01-17T09:21:12.447Z,59.7
2023-01-17T09:21:59.844Z,60.0
2023-01-17T09:22:47.178Z,60.3
2023-01-17T09:23:34.484Z,60.0
2023-01-17T09:24:21.934Z,60.2
2023-01-17T09:25:09.265Z,60.6
2023-01-17T09:25:56.602Z,59.7
2023-01-17T09:26:44.056Z,60.2
2023-01-17T09:27:31.403Z,60.0
2023-01-17T09:28:18.732Z,60.0
2023-01-17T09:29:06.141Z,60.3
2023-01-17T09:29:53.476Z,60.1
2023-01-17T09:30:40.808Z,60.3
2023-01-17T09:31:28.213Z,60.4
2023-01-17T09:32:15.557Z,60.7
2023-01-17T09:33:02.888Z,60.6
2023-01-17T09:33:50.282Z,60.5
2023-01-17T09:34:37.637Z,60.0
2023-01-17T09:35:24.984Z,60.1
2023-01-17T09:36:12.322Z,60.3
2023-01-17T09:36:59.641Z,60.5
2023-01-17T09:37:46.965Z,60.9
2023-01-17T09:38:34.374Z,60.9
2023-01-17T09:39:21.690Z,60.8
2023-01-17T09:40:09.020Z,60.7
2023-01-17T09:40:56.412Z,60.6
2023-01-17T09:41:43.738Z,60.5
2023-01-17T09:42:31.051Z,60.6
2023-01-17T09:43:18.528Z,60.7
2023-01-17T09:44:05.856Z,60.5
2023-01-17T09:44:53.198Z,60.1
2023-01-17T09:45:40.610Z,60.8
2023-01-17T09:46:28.006Z,60.2
2023-01-17T09:47:15.571Z,60.5
2023-01-17T09:48:03.031Z,60.1
2023-01-17T09:48:50.452Z,60.2
2023-01-17T09:49:37.768Z,60.5
2023-01-17T09:50:25.142Z,60.3
2023-01-17T09:51:12.461Z,60.0
2023-01-17T09:51:59.788Z,59.7
2023-01-17T09:52:47.143Z,60.0
2023-01-17T09:53:34.506Z,59.8
2023-01-17T09:54:21.884Z,60.1
2023-01-17T09:55:09.220Z,60.3
2023-01-17T09:55:56.545Z,59.7
2023-01-17T09:56:44.053Z,59.9
2023-01-17T09:57:31.432Z,60.3
2023-01-17T09:58:18.781Z,59.9
2023-01-17T09:59:06.109Z,60.1
2023-01-17T10:00:02.927Z,60.1
2023-01-17T10:00:50.733Z,60.0
2023-01-17T10:01:38.343Z,60.1
2023-01-17T10:02:26.707Z,59.8
2023-01-17T10:03:14.287Z,60.0
2023-01-17T10:04:01.791Z,59.9
2023-01-17T10:04:49.156Z,60.1
2023-01-17T10:05:36.531Z,60.7
2023-01-17T10:06:23.867Z,60.5
2023-01-17T10:07:11.213Z,60.5
2023-01-17T10:07:58.544Z,60.9
2023-01-17T10:08:45.868Z,60.2
2023-01-17T10:09:33.245Z,60.5
2023-01-17T10:10:20.654Z,60.2
2023-01-17T10:11:08.093Z,60.2
2023-01-17T10:11:55.427Z,60.0
2023-01-17T10:12:42.782Z,59.9
2023-01-17T10:13:30.079Z,59.8
2023-01-17T10:14:17.399Z,59.8
2023-01-17T10:15:04.731Z,59.6
2023-01-17T10:15:52.053Z,59.7
2023-01-17T10:16:39.439Z,59.6
2023-01-17T10:17:26.836Z,60.0
2023-01-17T10:18:28.806Z,59.7
2023-01-17T10:19:11.468Z,59.9
2023-01-17T10:19:58.877Z,60.0
2023-01-17T10:20:46.197Z,60.3
2023-01-17T10:21:33.516Z,60.6
2023-01-17T10:22:20.975Z,60.0
2023-01-17T10:23:08.359Z,60.2
2023-01-17T10:23:55.668Z,59.9
2023-01-17T10:24:43.068Z,60.5
2023-01-17T10:25:30.672Z,60.0
2023-01-17T10:26:18.039Z,59.6
2023-01-17T10:27:05.628Z,59.0
2023-01-17T10:27:52.961Z,59.2
2023-01-17T10:28:40.329Z,59.7
2023-01-17T10:29:27.686Z,59.6
2023-01-17T10:30:15.060Z,59.5
2023-01-17T10:31:02.449Z,59.4
2023-01-17T10:31:49.811Z,59.9
2023-01-17T10:32:37.120Z,60.2
2023-01-17T10:33:24.436Z,59.9
2023-01-17T10:34:11.846Z,60.2
2023-01-17T10:34:59.198Z,60.3
2023-01-17T10:35:46.512Z,60.6
2023-01-17T10:36:33.920Z,60.2
2023-01-17T10:37:21.273Z,60.8
2023-01-17T10:38:08.589Z,60.0
2023-01-17T10:38:55.989Z,60.4
2023-01-17T10:39:43.321Z,60.0
2023-01-17T10:40:30.626Z,60.2
2023-01-17T10:41:18.063Z,60.1
2023-01-17T10:42:05.401Z,61.6
2023-01-17T10:42:52.726Z,61.3
2023-01-17T10:43:40.154Z,59.8
2023-01-17T10:44:27.477Z,59.4
2023-01-17T10:45:14.786Z,59.3
2023-01-17T10:46:02.317Z,59.6
2023-01-17T10:46:49.655Z,59.9
2023-01-17T10:47:36.977Z,59.3
2023-01-17T10:48:24.390Z,59.7
2023-01-17T10:49:11.703Z,60.0
2023-01-17T10:49:59.007Z,60.0
2023-01-17T10:50:46.489Z,59.8
2023-01-17T10:51:33.810Z,59.6
2023-01-17T10:52:21.107Z,60.0
2023-01-17T10:53:08.620Z,59.3
2023-01-17T10:53:55.984Z,58.9
2023-01-17T10:54:43.320Z,59.3
2023-01-17T10:55:30.755Z,59.5
2023-01-17T10:56:18.085Z,59.8
2023-01-17T10:57:05.411Z,59.5
2023-01-17T10:57:52.887Z,60.4
2023-01-17T10:58:40.232Z,60.4
2023-01-17T10:59:27.563Z,59.1
2023-01-17T11:00:14.991Z,59.5
2023-01-17T11:01:02.397Z,60.2
2023-01-17T11:01:51.226Z,60.5
2023-01-17T11:02:38.814Z,60.2
2023-01-17T11:03:26.181Z,59.6
2023-01-17T11:04:13.496Z,59.2
2023-01-17T11:05:00.831Z,59.1
2023-01-17T11:05:48.231Z,59.1
2023-01-17T11:06:37.893Z,59.0
2023-01-17T11:07:30.857Z,59.6
2023-01-17T11:08:18.246Z,59.2
2023-01-17T11:09:05.568Z,60.2
2023-01-17T11:09:52.885Z,61.5
2023-01-17T11:10:40.317Z,60.9
2023-01-17T11:11:27.636Z,60.7
2023-01-17T11:12:14.983Z,60.6
2023-01-17T11:13:02.442Z,60.2
2023-01-17T11:13:49.752Z,60.6
2023-01-17T11:14:37.076Z,59.7
2023-01-17T11:15:24.509Z,59.9
2023-01-17T11:16:11.876Z,60.6
2023-01-17T11:16:59.242Z,60.7
2023-01-17T11:17:46.651Z,60.5
2023-01-17T11:18:33.965Z,60.2
2023-01-17T11:19:21.294Z,60.2
2023-01-17T11:20:08.684Z,60.4
2023-01-17T11:20:55.999Z,60.2
2023-01-17T11:21:45.053Z,60.2
2023-01-17T11:22:33.039Z,60.4
2023-01-17T11:23:20.370Z,60.0
2023-01-17T11:24:07.728Z,59.5
2023-01-17T11:24:55.066Z,59.4
2023-01-17T11:25:42.466Z,59.8
2023-01-17T11:26:29.789Z,59.5
2023-01-17T11:34:02.122Z,7.8
2023-01-17T11:41:34.460Z,7.3
2023-01-17T11:49:06.793Z,7.4
2023-01-17T11:49:54.187Z,59.8
2023-01-17T11:50:41.574Z,59.0
2023-01-17T11:51:28.940Z,59.0
2023-01-17T11:52:16.246Z,59.3
2023-01-17T11:53:03.796Z,59.2
2023-01-17T11:53:51.143Z,58.9
2023-01-17T11:54:38.478Z,58.8
2023-01-17T11:55:25.893Z,58.9
2023-01-17T11:56:13.240Z,57.9
2023-01-17T11:57:00.566Z,59.3
2023-01-17T11:57:48.006Z,59.6
2023-01-17T11:58:35.330Z,59.1
2023-01-17T11:59:22.650Z,59.7
2023-01-17T12:00:10.101Z,59.3
2023-01-17T12:00:57.458Z,59.2
2023-01-17T12:01:44.782Z,59.0
2023-01-17T12:02:32.276Z,59.6
2023-01-17T12:03:19.672Z,59.3
2023-01-17T12:04:07.101Z,59.5
2023-01-17T12:04:54.567Z,59.5
2023-01-17T12:05:41.918Z,59.5
2023-01-17T12:06:29.236Z,59.2
2023-01-17T12:07:16.624Z,58.8
2023-01-17T12:08:03.942Z,59.4
2023-01-17T12:08:51.314Z,59.2
2023-01-17T12:09:38.832Z,59.1
2023-01-17T12:10:26.189Z,59.2
2023-01-17T12:11:13.499Z,59.0
2023-01-17T12:12:00.896Z,59.2
2023-01-17T12:12:48.238Z,59.0
2023-01-17T12:13:35.569Z,59.0
2023-01-17T12:14:22.971Z,58.9
2023-01-17T12:15:10.304Z,59.0
2023-01-17T12:16:00.249Z,59.1
2023-01-17T12:16:47.620Z,59.0
2023-01-17T12:17:34.959Z,59.0
2023-01-17T12:18:22.316Z,59.3
2023-01-17T12:19:09.630Z,58.9
2023-01-17T12:19:57.086Z,59.1
2023-01-17T12:20:44.412Z,59.1
2023-01-17T12:21:31.749Z,58.2
2023-01-17T12:22:19.168Z,59.1
2023-01-17T12:23:06.544Z,58.7
2023-01-17T12:23:53.880Z,58.8
2023-01-17T12:24:41.292Z,58.2
2023-01-17T12:25:28.628Z,58.5
2023-01-17T12:26:15.930Z,57.8
2023-01-17T12:27:03.376Z,57.9
2023-01-17T12:27:50.720Z,58.5
2023-01-17T12:28:38.051Z,57.8
2023-01-17T12:29:25.466Z,57.8
2023-01-17T12:30:12.804Z,58.0
2023-01-17T12:31:00.185Z,58.4
2023-01-17T12:31:47.676Z,57.9
2023-01-17T12:32:35.014Z,57.8
2023-01-17T12:33:22.380Z,58.5
2023-01-17T12:34:09.794Z,58.3
2023-01-17T12:34:57.581Z,58.4
2023-01-17T12:35:44.924Z,58.4
2023-01-17T12:36:32.328Z,58.1
2023-01-17T12:37:19.681Z,58.2
2023-01-17T12:38:07.003Z,58.5
2023-01-17T12:38:54.444Z,58.2
2023-01-17T12:39:41.765Z,58.3
2023-01-17T12:40:29.080Z,58.6
2023-01-17T12:41:16.505Z,58.7
2023-01-17T12:42:03.858Z,58.6
2023-01-17T12:42:51.165Z,58.5
2023-01-17T12:43:38.562Z,58.3
2023-01-17T12:44:25.873Z,58.7
2023-01-17T12:45:13.230Z,59.1
2023-01-17T12:46:00.622Z,59.2
2023-01-17T12:46:47.939Z,58.8
2023-01-17T12:47:35.243Z,59.2
2023-01-17T12:48:22.655Z,58.8
2023-01-17T12:49:09.998Z,58.7
2023-01-17T12:49:57.327Z,58.4
2023-01-17T12:50:44.739Z,58.5
2023-01-17T12:51:32.063Z,58.7
2023-01-17T12:52:19.381Z,58.5
2023-01-17T12:53:06.790Z,58.3
2023-01-17T12:53:54.146Z,58.4
2023-01-17T12:54:41.463Z,58.4
2023-01-17T12:55:28.864Z,58.9
2023-01-17T12:56:16.325Z,59.1
2023-01-17T12:57:03.895Z,58.9
2023-01-17T12:57:51.209Z,58.8
2023-01-17T12:58:38.488Z,58.8
2023-01-17T12:59:25.811Z,58.8
2023-01-17T13:00:13.274Z,58.5
2023-01-17T13:01:01.644Z,58.4
2023-01-17T13:01:49.257Z,58.5
2023-01-17T13:02:37.164Z,58.4
2023-01-17T13:03:24.528Z,58.8
2023-01-17T13:04:11.861Z,59.1
2023-01-17T13:04:59.348Z,58.8
2023-01-17T13:05:46.726Z,58.9
2023-01-17T13:06:34.036Z,58.9
2023-01-17T13:07:21.359Z,59.0
2023-01-17T13:08:08.785Z,58.5
2023-01-17T13:08:56.179Z,58.8
2023-01-17T13:09:43.535Z,58.6
2023-01-17T13:10:31.904Z,58.6
2023-01-17T13:11:19.335Z,58.5
2023-01-17T13:12:06.652Z,58.0
2023-01-17T13:12:53.974Z,58.1
2023-01-17T13:13:41.382Z,58.0
2023-01-17T13:14:29.137Z,58.7
2023-01-17T13:15:16.441Z,58.5
2023-01-17T13:16:03.963Z,58.3
2023-01-17T13:16:51.313Z,58.4
2023-01-17T13:17:38.593Z,58.3
2023-01-17T13:18:26.124Z,58.7
2023-01-17T13:19:13.455Z,58.5
2023-01-17T13:20:01.223Z,58.2
2023-01-17T13:20:48.537Z,58.3
2023-01-17T13:21:35.925Z,58.4
2023-01-17T13:22:23.295Z,58.4
2023-01-17T13:23:10.622Z,58.6
2023-01-17T13:23:57.924Z,58.5
2023-01-17T13:24:45.264Z,58.5
2023-01-17T13:25:32.607Z,58.5
2023-01-17T13:26:19.912Z,58.6
2023-01-17T13:27:07.264Z,58.8
2023-01-17T13:27:54.624Z,58.6
2023-01-17T13:28:41.937Z,58.5
2023-01-17T13:29:29.266Z,58.9
2023-01-17T13:30:16.634Z,58.4
2023-01-17T13:31:04.035Z,58.0
2023-01-17T13:31:51.500Z,58.2
2023-01-17T13:32:38.835Z,58.7
2023-01-17T13:33:26.138Z,57.7
2023-01-17T13:34:13.456Z,58.3
2023-01-17T13:35:01.774Z,58.6
2023-01-17T13:35:49.171Z,58.2
2023-01-17T13:36:36.774Z,58.6
2023-01-17T13:37:24.165Z,58.6
2023-01-17T13:38:11.499Z,58.7
2023-01-17T13:38:58.876Z,58.5
2023-01-17T13:39:46.732Z,57.7
2023-01-17T13:40:34.093Z,58.3
2023-01-17T13:41:21.453Z,58.6
2023-01-17T13:42:08.799Z,58.5
2023-01-17T13:42:56.161Z,58.7
2023-01-17T13:43:43.551Z,58.4
2023-01-17T13:44:30.859Z,58.3
2023-01-17T13:45:18.164Z,58.5
2023-01-17T13:46:05.611Z,58.5
2023-01-17T13:46:52.923Z,58.4
2023-01-17T13:47:40.239Z,56.1
2023-01-17T13:48:27.659Z,57.5
2023-01-17T13:49:14.997Z,57.6
2023-01-17T13:50:02.330Z,57.8
2023-01-17T13:50:49.793Z,57.6
2023-01-17T13:51:37.097Z,57.5
2023-01-17T13:52:24.435Z,58.0
2023-01-17T13:53:11.848Z,57.8
2023-01-17T13:53:59.309Z,57.5
2023-01-17T13:54:46.639Z,57.7
2023-01-17T13:55:34.081Z,57.6
2023-01-17T13:56:21.581Z,57.8
2023-01-17T13:57:08.923Z,58.3
2023-01-17T13:57:56.333Z,58.4
2023-01-17T13:58:43.676Z,57.8
2023-01-17T13:59:31.027Z,58.2
2023-01-17T14:00:18.402Z,57.5
2023-01-17T14:01:05.828Z,58.0
2023-01-17T14:01:53.509Z,57.9
2023-01-17T14:02:40.923Z,58.2
2023-01-17T14:03:28.321Z,57.6
2023-01-17T14:04:15.665Z,57.9
2023-01-17T14:05:03.059Z,57.9
2023-01-17T14:05:50.364Z,57.6
2023-01-17T14:06:37.681Z,58.1
2023-01-17T14:07:24.988Z,57.9
2023-01-17T14:08:12.337Z,57.9
2023-01-17T14:08:59.696Z,58.1
2023-01-17T14:09:46.982Z,57.9
2023-01-17T14:10:34.322Z,58.2
2023-01-17T14:11:21.663Z,57.9
2023-01-17T14:12:08.998Z,58.0
2023-01-17T14:12:56.296Z,58.0
2023-01-17T14:13:43.673Z,57.7
2023-01-17T14:14:30.962Z,58.2
2023-01-17T14:15:18.276Z,57.6
2023-01-17T14:16:05.605Z,58.2
2023-01-17T14:16:52.996Z,57.7
2023-01-17T14:17:40.321Z,57.5
2023-01-17T14:18:27.735Z,57.9
2023-01-17T14:19:15.061Z,58.1
2023-01-17T14:20:02.427Z,57.3
2023-01-17T14:20:49.781Z,57.9
2023-01-17T14:21:37.188Z,57.4
2023-01-17T14:22:24.511Z,57.8
2023-01-17T14:23:11.934Z,57.6
2023-01-17T14:23:59.270Z,57.6
2023-01-17T14:24:46.664Z,57.7
2023-01-17T14:25:34.018Z,57.9
2023-01-17T14:26:21.326Z,57.7
2023-01-17T14:27:08.639Z,57.9
2023-01-17T14:27:55.976Z,57.5
2023-01-17T14:28:43.308Z,57.4
2023-01-17T14:29:30.669Z,57.3
2023-01-17T14:30:17.992Z,56.8
2023-01-17T14:31:05.311Z,57.0
2023-01-17T14:31:52.676Z,57.1
2023-01-17T14:32:40.022Z,57.0
2023-01-17T14:33:27.348Z,57.1
2023-01-17T14:34:15.112Z,57.4
2023-01-17T14:35:02.570Z,58.0
2023-01-17T14:35:49.904Z,57.1
2023-01-17T14:36:37.229Z,58.0
2023-01-17T14:37:24.543Z,57.8
2023-01-17T14:38:11.859Z,57.4
2023-01-17T14:38:59.156Z,57.8
2023-01-17T14:39:46.516Z,57.4
2023-01-17T14:40:33.854Z,57.4
2023-01-17T14:41:21.147Z,57.9
2023-01-17T14:42:08.464Z,57.9
2023-01-17T14:42:55.772Z,57.4
2023-01-17T14:43:43.100Z,57.4
2023-01-17T14:44:30.909Z,57.7
2023-01-17T14:45:19.180Z,57.6
2023-01-17T14:46:06.575Z,57.6
2023-01-17T14:46:53.909Z,57.5
2023-01-17T14:47:41.214Z,57.8
2023-01-17T14:48:28.531Z,57.5
2023-01-17T14:49:15.852Z,57.6
2023-01-17T14:50:03.184Z,57.7
2023-01-17T14:50:50.524Z,57.3
2023-01-17T14:51:37.839Z,57.8
2023-01-17T14:52:25.315Z,57.5
2023-01-17T14:53:12.722Z,57.6
2023-01-17T14:54:00.046Z,57.5
2023-01-17T14:54:47.438Z,57.6
2023-01-17T14:55:34.761Z,57.8
2023-01-17T14:56:22.092Z,57.7
2023-01-17T14:57:09.417Z,57.4
2023-01-17T14:57:56.835Z,57.9
2023-01-17T14:58:44.252Z,57.8
2023-01-17T14:59:31.863Z,57.7
2023-01-17T15:00:19.216Z,57.9
2023-01-17T15:01:06.640Z,57.5
2023-01-17T15:02:06.580Z,57.5
2023-01-17T15:02:51.351Z,57.8
2023-01-17T15:03:38.707Z,57.2
2023-01-17T15:04:26.523Z,57.2
2023-01-17T15:05:13.872Z,57.6
2023-01-17T15:06:02.988Z,57.5
2023-01-17T15:06:51.543Z,57.8
2023-01-17T15:07:38.969Z,57.7
2023-01-17T15:08:26.351Z,57.3
2023-01-17T15:09:13.680Z,57.5
2023-01-17T15:10:01.046Z,57.3
2023-01-17T15:10:48.384Z,57.4
2023-01-17T15:11:35.729Z,57.5
2023-01-17T15:12:23.102Z,58.0
2023-01-17T15:13:10.429Z,57.5
2023-01-17T15:13:57.741Z,57.0
2023-01-17T15:14:45.168Z,57.4
2023-01-17T15:15:32.498Z,57.7
2023-01-17T15:16:19.829Z,57.7
2023-01-17T15:17:07.243Z,57.3
2023-01-17T15:17:54.578Z,57.8
2023-01-17T15:18:42.700Z,57.3
2023-01-17T15:19:30.153Z,57.6
2023-01-17T15:20:17.469Z,57.6
2023-01-17T15:21:05.110Z,57.1
2023-01-17T15:21:52.453Z,57.3
2023-01-17T15:22:39.844Z,57.2
2023-01-17T15:23:27.149Z,57.6
2023-01-17T15:24:14.483Z,57.2
2023-01-17T15:25:01.867Z,57.7
2023-01-17T15:25:49.189Z,57.0
2023-01-17T15:26:36.522Z,57.3
2023-01-17T15:27:23.993Z,56.9
2023-01-17T15:28:11.310Z,57.0
2023-01-17T15:28:58.632Z,57.1
2023-01-17T15:29:46.085Z,57.1
2023-01-17T15:30:33.406Z,57.6
2023-01-17T15:31:20.730Z,57.6